createdAt,value
2017-08-14T00:02:12.496Z,6.60
2017-08-14T00:04:40.128Z,6.80
2017-08-14T00:07:07.736Z,6.03
2017-08-14T00:09:35.364Z,6.23
2017-08-14T00:12:02.971Z,6.80
2017-08-14T00:14:30.609Z,7.80
2017-08-14T00:16:58.200Z,6.37
2017-08-14T00:19:25.817Z,6.27
2017-08-14T00:21:53.558Z,6.20
2017-08-14T00:24:21.231Z,7.50
2017-08-14T00:26:48.827Z,6.23
2017-08-14T00:29:16.437Z,6.40
2017-08-14T00:31:44.062Z,6.83
2017-08-14T00:34:11.698Z,5.63
2017-08-14T00:36:39.297Z,5.50
2017-08-14T00:39:06.928Z,5.87
2017-08-14T00:41:34.546Z,5.97
2017-08-14T00:44:02.187Z,5.83
2017-08-14T00:46:29.843Z,6.03
2017-08-14T00:48:57.466Z,5.70
2017-08-14T00:51:25.086Z,6.90
2017-08-14T00:53:52.714Z,6.93
2017-08-14T00:56:20.310Z,6.43
2017-08-14T00:58:47.924Z,6.13
2017-08-14T01:01:15.543Z,6.53
2017-08-14T01:03:43.171Z,5.93
2017-08-14T01:06:10.807Z,7.03
2017-08-14T01:08:38.391Z,7.07
2017-08-14T01:11:06.075Z,7.33
2017-08-14T01:13:33.734Z,6.90
2017-08-14T01:16:01.414Z,7.03
2017-08-14T01:18:29.065Z,7.07
2017-08-14T01:20:56.679Z,6.10
2017-08-14T01:23:24.282Z,6.93
2017-08-14T01:25:51.931Z,6.23
2017-08-14T01:28:19.520Z,6.00
2017-08-14T01:30:47.142Z,6.07
2017-08-14T01:33:14.726Z,6.60
2017-08-14T01:35:42.363Z,5.63
2017-08-14T01:38:09.961Z,6.80
2017-08-14T01:40:37.588Z,5.90
2017-08-14T01:43:05.213Z,5.73
2017-08-14T01:45:32.845Z,6.33
2017-08-14T01:48:00.434Z,5.87
2017-08-14T01:50:28.054Z,6.83
2017-08-14T01:52:55.651Z,5.40
2017-08-14T01:55:23.306Z,5.30
2017-08-14T01:57:50.911Z,5.63
2017-08-14T02:00:18.507Z,5.60
2017-08-14T02:02:46.138Z,6.07
2017-08-14T02:05:13.751Z,5.60
2017-08-14T02:07:41.359Z,6.33
2017-08-14T02:10:08.962Z,5.80
2017-08-14T02:12:36.594Z,7.20
2017-08-14T02:15:04.190Z,6.17
2017-08-14T02:17:31.830Z,6.50
2017-08-14T02:19:59.421Z,7.47
2017-08-14T02:22:27.058Z,6.27
2017-08-14T02:24:54.697Z,5.83
2017-08-14T02:27:22.330Z,6.90
2017-08-14T02:29:49.932Z,6.70
2017-08-14T02:32:17.552Z,6.90
2017-08-14T02:34:45.148Z,6.37
2017-08-14T02:37:12.782Z,6.60
2017-08-14T02:39:40.414Z,5.83
2017-08-14T02:42:08.034Z,5.40
2017-08-14T02:44:35.622Z,6.50
2017-08-14T02:47:03.245Z,6.47
2017-08-14T02:49:30.865Z,6.00
2017-08-14T02:51:58.566Z,5.97
2017-08-14T02:54:26.155Z,7.13
2017-08-14T02:56:53.777Z,6.10
2017-08-14T02:59:21.374Z,5.57
2017-08-14T03:01:49.001Z,5.70
2017-08-14T03:04:16.598Z,6.80
2017-08-14T03:06:44.258Z,5.77
2017-08-14T03:09:11.845Z,5.50
2017-08-14T03:11:39.495Z,5.70
2017-08-14T03:14:07.196Z,5.53
2017-08-14T03:16:34.833Z,6.27
2017-08-14T03:19:02.441Z,5.87
2017-08-14T03:21:30.113Z,6.50
2017-08-14T03:23:57.725Z,6.70
2017-08-14T03:26:25.422Z,6.80
2017-08-14T03:28:53.031Z,6.90
2017-08-14T03:31:20.658Z,5.97
2017-08-14T03:33:48.267Z,6.43
2017-08-14T03:36:15.909Z,5.53
2017-08-14T03:38:43.555Z,5.80
2017-08-14T03:41:11.174Z,5.40
2017-08-14T03:43:38.843Z,6.10
2017-08-14T03:46:06.450Z,5.30
2017-08-14T03:48:34.142Z,4.97
2017-08-14T03:51:01.775Z,5.80
2017-08-14T03:53:29.395Z,6.00
2017-08-14T03:55:56.998Z,4.70
2017-08-14T03:58:24.647Z,6.07
2017-08-14T04:00:52.310Z,5.20
2017-08-14T04:03:20.027Z,5.87
2017-08-14T04:05:47.622Z,5.53
2017-08-14T04:08:15.266Z,6.10
2017-08-14T04:10:42.891Z,5.90
2017-08-14T04:13:10.576Z,7.07
2017-08-14T04:15:38.162Z,6.07
2017-08-14T04:18:05.802Z,6.03
2017-08-14T04:20:33.398Z,6.47
2017-08-14T04:23:01.086Z,6.20
2017-08-14T04:25:28.675Z,5.47
2017-08-14T04:27:56.316Z,5.60
2017-08-14T04:30:23.924Z,5.40
2017-08-14T04:32:51.537Z,5.33
2017-08-14T04:35:19.186Z,7.13
2017-08-14T04:37:46.884Z,6.33
2017-08-14T04:40:14.490Z,6.70
2017-08-14T04:42:42.150Z,5.50
2017-08-14T04:45:09.750Z,6.93
2017-08-14T04:47:37.370Z,7.40
2017-08-14T04:50:05.029Z,7.10
2017-08-14T04:52:32.646Z,6.33
2017-08-14T04:55:00.258Z,7.77
2017-08-14T04:57:27.893Z,6.53
2017-08-14T04:59:55.546Z,6.50
2017-08-14T05:02:23.190Z,6.90
2017-08-14T05:04:50.801Z,8.73
2017-08-14T05:07:18.450Z,6.10
2017-08-14T05:09:46.162Z,6.30
2017-08-14T05:12:13.802Z,7.33
2017-08-14T05:14:41.406Z,7.43
2017-08-14T05:17:09.143Z,7.17
2017-08-14T05:19:36.734Z,6.53
2017-08-14T05:22:04.355Z,6.97
2017-08-14T05:24:31.986Z,7.57
2017-08-14T05:26:59.580Z,7.87
2017-08-14T05:29:27.197Z,7.30
2017-08-14T05:31:54.837Z,7.97
2017-08-14T05:34:22.434Z,7.40
2017-08-14T05:36:50.070Z,8.03
2017-08-14T05:39:17.690Z,7.07
2017-08-14T05:41:45.278Z,6.00
2017-08-14T05:44:12.935Z,7.70
2017-08-14T05:46:40.525Z,7.77
2017-08-14T05:49:08.233Z,7.63
2017-08-14T05:51:35.852Z,8.47
2017-08-14T05:54:03.513Z,9.30
2017-08-14T05:56:31.119Z,10.20
2017-08-14T05:58:58.754Z,10.40
2017-08-14T06:01:26.354Z,8.67
2017-08-14T06:03:53.982Z,9.00
2017-08-14T06:06:21.640Z,10.13
2017-08-14T06:08:49.278Z,8.73
2017-08-14T06:11:16.870Z,9.17
2017-08-14T06:13:44.506Z,8.23
2017-08-14T06:16:12.095Z,8.40
2017-08-14T06:18:39.736Z,6.40
2017-08-14T06:21:07.342Z,7.73
2017-08-14T06:23:34.973Z,7.03
2017-08-14T06:26:02.595Z,7.80
2017-08-14T06:28:30.214Z,7.17
2017-08-14T06:30:57.823Z,7.70
2017-08-14T06:33:25.481Z,6.83
2017-08-14T06:35:53.080Z,7.20
2017-08-14T06:38:20.672Z,6.60
2017-08-14T06:40:48.299Z,5.90
2017-08-14T06:43:15.898Z,5.60
2017-08-14T06:45:43.519Z,5.43
2017-08-14T06:48:11.136Z,4.37
2017-08-14T06:50:38.771Z,4.90
2017-08-14T06:53:06.367Z,4.00
2017-08-14T06:55:33.998Z,4.23
2017-08-14T06:58:01.590Z,4.33
2017-08-14T07:00:29.219Z,4.80
2017-08-14T07:02:56.806Z,5.30
2017-08-14T07:05:24.440Z,5.20
2017-08-14T07:07:52.030Z,7.70
2017-08-14T07:10:19.670Z,8.20
2017-08-14T07:12:47.301Z,7.70
2017-08-14T07:15:14.927Z,8.47
2017-08-14T07:17:42.536Z,7.13
2017-08-14T07:20:10.182Z,6.67
2017-08-14T07:22:37.793Z,7.57
2017-08-14T07:25:05.459Z,6.50
2017-08-14T07:27:33.038Z,5.07
2017-08-14T07:30:00.662Z,6.30
2017-08-14T07:32:28.262Z,6.70
2017-08-14T07:34:55.915Z,6.90
2017-08-14T07:37:23.539Z,6.10
2017-08-14T07:39:51.218Z,5.77
2017-08-14T07:42:18.962Z,5.23
2017-08-14T07:44:46.698Z,6.47
2017-08-14T07:47:14.300Z,6.27
2017-08-14T07:49:41.942Z,5.10
2017-08-14T07:52:09.539Z,4.70
2017-08-14T07:54:37.242Z,5.40
2017-08-14T07:57:04.861Z,4.43
2017-08-14T07:59:32.495Z,4.53
2017-08-14T08:02:00.163Z,4.47
2017-08-14T08:04:27.847Z,4.40
2017-08-14T08:06:55.440Z,4.00
2017-08-14T08:09:23.070Z,4.17
2017-08-14T08:11:50.704Z,4.10
2017-08-14T08:14:18.315Z,4.77
2017-08-14T08:16:45.928Z,4.00
2017-08-14T08:19:13.543Z,4.00
2017-08-14T08:21:41.132Z,4.10
2017-08-14T08:24:08.791Z,4.07
2017-08-14T08:26:36.383Z,4.27
2017-08-14T08:29:04.014Z,3.80
2017-08-14T08:31:31.622Z,4.00
2017-08-14T08:33:59.236Z,3.37
2017-08-14T08:36:26.832Z,3.30
2017-08-14T08:38:54.503Z,3.27
2017-08-14T08:41:22.099Z,3.53
2017-08-14T08:43:49.696Z,3.60
2017-08-14T08:46:17.327Z,4.03
2017-08-14T08:48:44.954Z,5.27
2017-08-14T08:51:12.539Z,4.10
2017-08-14T08:53:40.188Z,3.90
2017-08-14T08:56:07.798Z,3.30
2017-08-14T08:58:35.400Z,3.90
2017-08-14T09:01:03.022Z,3.70
2017-08-14T09:03:30.621Z,4.00
2017-08-14T09:05:58.323Z,3.50
2017-08-14T09:08:25.919Z,3.90
2017-08-14T09:10:53.537Z,4.03
2017-08-14T09:13:21.142Z,4.10
2017-08-14T09:15:48.762Z,4.80
2017-08-14T09:18:16.357Z,3.73
2017-08-14T09:20:43.986Z,3.03
2017-08-14T09:23:11.586Z,4.20
2017-08-14T09:25:39.341Z,4.70
2017-08-14T09:28:06.942Z,3.97
2017-08-14T09:30:34.544Z,4.57
2017-08-14T09:33:02.153Z,4.50
2017-08-14T09:35:29.754Z,4.67
2017-08-14T09:37:57.377Z,3.70
2017-08-14T09:40:24.987Z,4.10
2017-08-14T09:42:52.621Z,3.93
2017-08-14T09:45:20.214Z,3.80
2017-08-14T09:47:47.855Z,3.50
2017-08-14T09:50:15.442Z,3.80
2017-08-14T09:52:43.063Z,3.67
2017-08-14T09:55:10.655Z,4.20
2017-08-14T09:57:38.282Z,4.10
2017-08-14T10:00:05.866Z,3.60
2017-08-14T10:02:33.487Z,5.00
2017-08-14T10:05:01.071Z,4.60
2017-08-14T10:07:28.719Z,3.70
2017-08-14T10:09:56.318Z,3.80
2017-08-14T10:12:23.951Z,3.00
2017-08-14T10:14:51.579Z,3.07
2017-08-14T10:17:19.219Z,2.97
2017-08-14T10:19:46.809Z,3.33
2017-08-14T10:22:14.490Z,2.90
2017-08-14T10:24:42.103Z,3.50
2017-08-14T10:27:09.739Z,2.90
2017-08-14T10:29:37.370Z,2.90
2017-08-14T10:32:04.982Z,3.20
2017-08-14T10:34:32.606Z,3.30
2017-08-14T10:37:00.215Z,2.60
2017-08-14T10:39:27.909Z,2.40
2017-08-14T10:41:55.511Z,2.80
2017-08-14T10:44:23.123Z,3.67
2017-08-14T10:46:50.729Z,3.20
2017-08-14T10:49:18.407Z,2.83
2017-08-14T10:51:46.000Z,2.63
2017-08-14T10:54:13.620Z,3.07
2017-08-14T10:56:41.209Z,3.40
2017-08-14T10:59:08.826Z,2.87
2017-08-14T11:01:36.439Z,3.13
2017-08-14T11:04:04.066Z,3.13
2017-08-14T11:06:31.658Z,2.87
2017-08-14T11:08:59.287Z,2.87
2017-08-14T11:11:26.884Z,2.87
2017-08-14T11:13:54.499Z,2.80
2017-08-14T11:16:22.127Z,4.10
2017-08-14T11:18:49.742Z,2.83
2017-08-14T11:21:17.370Z,3.10
2017-08-14T11:23:45.006Z,3.10
2017-08-14T11:26:12.598Z,3.53
2017-08-14T11:28:40.234Z,2.90
2017-08-14T11:31:07.832Z,3.10
2017-08-14T11:33:35.463Z,2.53
2017-08-14T11:36:03.155Z,3.03
2017-08-14T11:38:30.795Z,2.70
2017-08-14T11:40:58.424Z,3.03
2017-08-14T11:43:26.075Z,2.73
2017-08-14T11:45:53.708Z,2.50
2017-08-14T11:48:21.316Z,2.90
2017-08-14T11:50:48.965Z,3.00
2017-08-14T11:53:16.561Z,3.03
2017-08-14T11:55:44.183Z,2.70
2017-08-14T11:58:11.785Z,2.20
2017-08-14T12:00:39.415Z,3.50
2017-08-14T12:03:07.030Z,2.37
2017-08-14T12:05:34.687Z,2.57
2017-08-14T12:08:02.267Z,2.57
2017-08-14T12:10:29.955Z,2.73
2017-08-14T12:12:57.550Z,2.70
2017-08-14T12:15:25.175Z,2.40
2017-08-14T12:17:52.806Z,2.50
2017-08-14T12:20:20.434Z,2.30
2017-08-14T12:22:48.047Z,1.80
2017-08-14T12:25:15.718Z,2.20
2017-08-14T12:27:43.323Z,2.20
2017-08-14T12:30:10.915Z,2.83
2017-08-14T12:32:38.582Z,2.50
2017-08-14T12:35:06.171Z,2.10
2017-08-14T12:37:33.787Z,2.27
2017-08-14T12:40:01.434Z,2.20
2017-08-14T12:42:29.031Z,2.77
2017-08-14T12:44:56.622Z,2.60
2017-08-14T12:47:24.246Z,2.40
2017-08-14T12:49:51.835Z,2.90
2017-08-14T12:52:19.506Z,2.20
2017-08-14T12:54:47.083Z,2.30
2017-08-14T12:57:14.782Z,1.90
2017-08-14T12:59:42.379Z,2.33
2017-08-14T13:02:10.015Z,2.00
2017-08-14T13:04:37.606Z,2.30
2017-08-14T13:07:05.302Z,1.80
2017-08-14T13:09:32.934Z,2.20
2017-08-14T13:12:02.243Z,2.20
2017-08-14T13:14:29.836Z,1.80
2017-08-14T13:16:57.467Z,2.00
2017-08-14T13:19:25.054Z,2.00
2017-08-14T13:21:52.746Z,2.00
2017-08-14T13:24:20.335Z,2.30
2017-08-14T13:26:47.969Z,1.53
2017-08-14T13:29:15.604Z,1.97
2017-08-14T13:31:43.236Z,1.60
2017-08-14T13:34:10.843Z,1.50
2017-08-14T13:36:38.545Z,1.70
2017-08-14T13:39:06.140Z,1.67
2017-08-14T13:41:33.784Z,1.47
2017-08-14T13:44:01.387Z,2.27
2017-08-14T13:46:29.017Z,1.90
2017-08-14T13:48:56.606Z,1.70
2017-08-14T13:51:24.270Z,1.90
2017-08-14T13:53:51.867Z,2.00
2017-08-14T13:56:19.503Z,1.47
2017-08-14T13:58:47.091Z,2.40
2017-08-14T14:01:14.706Z,1.80
2017-08-14T14:03:42.291Z,2.13
2017-08-14T14:06:09.912Z,2.13
2017-08-14T14:08:37.515Z,1.60
2017-08-14T14:11:05.157Z,1.60
2017-08-14T14:13:32.738Z,2.37
2017-08-14T14:16:00.386Z,1.67
2017-08-14T14:18:27.986Z,2.00
2017-08-14T14:20:55.580Z,2.20
2017-08-14T14:23:23.244Z,2.10
2017-08-14T14:25:50.842Z,1.77
2017-08-14T14:28:18.472Z,2.13
2017-08-14T14:30:46.070Z,1.80
2017-08-14T14:33:13.725Z,2.17
2017-08-14T14:35:41.329Z,1.70
2017-08-14T14:38:08.947Z,1.80
2017-08-14T14:40:36.553Z,1.90
2017-08-14T14:43:04.174Z,1.70
2017-08-14T14:45:31.759Z,2.00
2017-08-14T14:47:59.375Z,1.70
2017-08-14T14:50:27.042Z,1.80
2017-08-14T14:52:54.663Z,2.10
2017-08-14T14:55:22.255Z,2.27
2017-08-14T14:57:49.873Z,1.70
2017-08-14T15:00:17.470Z,1.70
2017-08-14T15:02:45.095Z,1.67
2017-08-14T15:05:12.706Z,2.43
2017-08-14T15:07:40.323Z,2.00
2017-08-14T15:10:08.009Z,1.97
2017-08-14T15:12:35.647Z,1.97
2017-08-14T15:15:03.307Z,2.07
2017-08-14T15:17:30.955Z,2.47
2017-08-14T15:19:58.563Z,2.30
2017-08-14T15:22:26.207Z,2.23
2017-08-14T15:24:53.815Z,2.13
2017-08-14T15:27:21.427Z,2.03
2017-08-14T15:29:49.038Z,2.80
2017-08-14T15:32:16.686Z,2.93
2017-08-14T15:34:44.285Z,2.80
2017-08-14T15:37:11.875Z,2.53
2017-08-14T15:39:39.494Z,2.23
2017-08-14T15:42:07.094Z,2.70
2017-08-14T15:44:34.731Z,2.60
2017-08-14T15:47:02.330Z,2.83
2017-08-14T15:49:29.949Z,2.67
2017-08-14T15:51:57.621Z,2.40
2017-08-14T15:54:25.258Z,2.07
2017-08-14T15:56:52.841Z,2.57
2017-08-14T15:59:20.498Z,2.40
2017-08-14T16:01:48.124Z,2.40
2017-08-14T16:04:15.760Z,2.30
2017-08-14T16:06:43.366Z,2.77
2017-08-14T16:09:11.042Z,2.97
2017-08-14T16:11:38.641Z,3.90
2017-08-14T16:14:06.263Z,3.20
2017-08-14T16:16:33.899Z,3.30
2017-08-14T16:19:01.543Z,3.60
2017-08-14T16:21:29.138Z,3.00
2017-08-14T16:23:56.771Z,2.80
2017-08-14T16:26:24.371Z,3.00
2017-08-14T16:28:52.013Z,3.13
2017-08-14T16:31:19.612Z,4.00
2017-08-14T16:33:47.235Z,2.93
2017-08-14T16:36:14.831Z,2.93
2017-08-14T16:38:42.454Z,2.97
2017-08-14T16:41:10.054Z,3.67
2017-08-14T16:43:37.722Z,3.30
2017-08-14T16:46:05.308Z,3.20
2017-08-14T16:48:32.906Z,2.77
2017-08-14T16:51:00.555Z,3.10
2017-08-14T16:53:28.207Z,3.23
2017-08-14T16:55:55.795Z,3.27
2017-08-14T16:58:23.394Z,2.47
2017-08-14T17:00:51.022Z,2.97
2017-08-14T17:03:18.644Z,2.50
2017-08-14T17:05:46.252Z,2.77
2017-08-14T17:08:13.876Z,2.30
2017-08-14T17:10:41.456Z,2.50
2017-08-14T17:13:09.091Z,2.63
2017-08-14T17:15:36.689Z,3.30
2017-08-14T17:18:04.299Z,2.83
2017-08-14T17:20:32.002Z,2.20
2017-08-14T17:22:59.621Z,3.00
2017-08-14T17:25:27.236Z,2.50
2017-08-14T17:27:54.902Z,2.60
2017-08-14T17:30:22.498Z,2.80
2017-08-14T17:32:50.115Z,3.20
2017-08-14T17:35:17.745Z,3.87
2017-08-14T17:37:45.351Z,3.00
2017-08-14T17:40:12.983Z,3.30
2017-08-14T17:42:40.586Z,3.40
2017-08-14T17:45:08.230Z,4.20
2017-08-14T17:47:35.839Z,5.80
2017-08-14T17:50:03.483Z,3.80
2017-08-14T17:52:31.059Z,5.20
2017-08-14T17:54:58.702Z,3.20
2017-08-14T17:57:26.287Z,3.07
2017-08-14T17:59:53.918Z,2.70
2017-08-14T18:02:21.653Z,3.17
2017-08-14T18:04:49.282Z,2.60
2017-08-14T18:07:16.879Z,2.97
2017-08-14T18:09:44.577Z,2.73
2017-08-14T18:12:12.572Z,2.80
2017-08-14T18:14:40.191Z,3.03
2017-08-14T18:17:07.791Z,3.00
2017-08-14T18:19:35.423Z,3.70
2017-08-14T18:22:03.030Z,3.10
2017-08-14T18:24:30.646Z,2.70
2017-08-14T18:26:58.269Z,2.80
2017-08-14T18:29:25.895Z,3.30
2017-08-14T18:31:53.498Z,3.30
2017-08-14T18:34:21.134Z,2.90
2017-08-14T18:36:48.794Z,3.20
2017-08-14T18:39:16.405Z,2.80
2017-08-14T18:41:44.117Z,3.33
2017-08-14T18:44:11.894Z,3.10
2017-08-14T18:46:39.504Z,3.70
2017-08-14T18:49:07.104Z,3.10
2017-08-14T18:51:34.727Z,3.10
2017-08-14T18:54:02.333Z,3.70
2017-08-14T18:56:29.965Z,2.90
2017-08-14T18:58:57.606Z,3.50
2017-08-14T19:01:25.215Z,3.70
2017-08-14T19:03:52.853Z,3.80
2017-08-14T19:06:20.449Z,3.97
2017-08-14T19:08:49.688Z,5.50
2017-08-14T19:11:15.762Z,3.80
2017-08-14T19:13:43.357Z,3.57
2017-08-14T19:16:11.028Z,3.97
2017-08-14T19:18:38.723Z,3.90
2017-08-14T19:21:06.359Z,3.17
2017-08-14T19:23:33.949Z,4.20
2017-08-14T19:26:01.585Z,3.80
2017-08-14T19:28:29.251Z,3.47
2017-08-14T19:30:56.875Z,4.07
2017-08-14T19:33:24.477Z,4.50
2017-08-14T19:35:52.152Z,3.70
2017-08-14T19:38:19.752Z,3.50
2017-08-14T19:40:47.353Z,3.30
2017-08-14T19:43:14.978Z,3.37
2017-08-14T19:45:42.571Z,3.43
2017-08-14T19:48:10.210Z,3.50
2017-08-14T19:50:37.887Z,3.63
2017-08-14T19:53:05.530Z,4.10
2017-08-14T19:55:33.135Z,4.80
2017-08-14T19:58:00.767Z,3.83
2017-08-14T20:00:28.374Z,4.37
2017-08-14T20:02:56.114Z,4.27
2017-08-14T20:05:23.746Z,3.93
2017-08-14T20:07:51.404Z,4.00
2017-08-14T20:10:19.084Z,4.40
2017-08-14T20:12:46.746Z,4.93
2017-08-14T20:15:14.339Z,4.20
2017-08-14T20:17:41.974Z,4.43
2017-08-14T20:20:09.595Z,4.47
2017-08-14T20:22:37.228Z,4.90
2017-08-14T20:25:04.911Z,4.40
2017-08-14T20:27:32.572Z,3.80
2017-08-14T20:30:00.171Z,4.13
2017-08-14T20:32:27.798Z,4.00
2017-08-14T20:34:55.393Z,4.23
2017-08-14T20:37:23.054Z,4.73
2017-08-14T20:39:50.652Z,4.33
2017-08-14T20:42:18.239Z,4.30
2017-08-14T20:44:45.862Z,4.53
2017-08-14T20:47:13.477Z,4.90
2017-08-14T20:49:41.089Z,5.13
2017-08-14T20:52:08.715Z,4.60
2017-08-14T20:54:36.335Z,4.70
2017-08-14T20:57:03.977Z,4.83
2017-08-14T20:59:31.581Z,4.73
2017-08-14T21:01:59.218Z,4.20
2017-08-14T21:04:26.830Z,4.47
2017-08-14T21:06:54.523Z,4.00
2017-08-14T21:09:22.113Z,4.40
2017-08-14T21:11:49.750Z,4.33
2017-08-14T21:14:17.340Z,4.20
2017-08-14T21:16:44.977Z,4.57
2017-08-14T21:19:12.567Z,4.07
2017-08-14T21:21:40.202Z,3.67
2017-08-14T21:24:07.817Z,4.70
2017-08-14T21:26:35.433Z,4.83
2017-08-14T21:29:03.062Z,4.70
2017-08-14T21:31:30.683Z,4.00
2017-08-14T21:33:58.278Z,4.93
2017-08-14T21:36:25.898Z,4.80
2017-08-14T21:38:53.500Z,4.93
2017-08-14T21:41:21.118Z,5.60
2017-08-14T21:43:48.726Z,4.40
2017-08-14T21:46:16.331Z,3.77
2017-08-14T21:48:43.965Z,4.53
2017-08-14T21:51:11.554Z,5.30
2017-08-14T21:53:39.197Z,4.87
2017-08-14T21:56:06.786Z,4.40
2017-08-14T21:58:34.413Z,4.83
2017-08-14T22:01:02.011Z,4.70
2017-08-14T22:03:29.642Z,4.60
2017-08-14T22:05:57.238Z,5.10
2017-08-14T22:08:24.879Z,5.70
2017-08-14T22:10:52.492Z,4.43
2017-08-14T22:13:20.172Z,5.17
2017-08-14T22:15:47.801Z,5.43
2017-08-14T22:18:15.426Z,4.80
2017-08-14T22:20:43.059Z,4.90
2017-08-14T22:23:10.678Z,5.40
2017-08-14T22:25:38.321Z,5.20
2017-08-14T22:28:06.022Z,5.37
2017-08-14T22:30:33.658Z,5.57
2017-08-14T22:33:01.253Z,4.50
2017-08-14T22:35:28.882Z,5.17
2017-08-14T22:37:56.479Z,4.33
2017-08-14T22:40:24.182Z,4.40
2017-08-14T22:42:51.782Z,4.67
2017-08-14T22:45:19.409Z,4.63
2017-08-14T22:47:47.011Z,4.90
2017-08-14T22:50:14.671Z,4.93
2017-08-14T22:52:42.266Z,4.20
2017-08-14T22:55:09.914Z,4.70
2017-08-14T22:57:37.503Z,3.83
2017-08-14T23:00:05.223Z,4.50
2017-08-14T23:02:32.816Z,4.90
2017-08-14T23:05:00.447Z,4.47
2017-08-14T23:07:28.041Z,5.20
2017-08-14T23:09:55.623Z,5.20
2017-08-14T23:12:23.242Z,5.17
2017-08-14T23:14:50.946Z,5.37
2017-08-14T23:17:18.575Z,5.23
2017-08-14T23:19:46.206Z,5.30
2017-08-14T23:22:13.863Z,5.00
2017-08-14T23:24:41.458Z,5.20
2017-08-14T23:27:09.079Z,4.50
2017-08-14T23:29:36.718Z,4.00
2017-08-14T23:32:04.355Z,4.60
2017-08-14T23:34:31.943Z,3.90
2017-08-14T23:36:59.568Z,5.00
2017-08-14T23:39:27.283Z,4.67
2017-08-14T23:41:54.906Z,4.93
2017-08-14T23:44:22.494Z,5.80
2017-08-14T23:46:50.191Z,5.10
2017-08-14T23:49:17.798Z,4.60
2017-08-14T23:51:45.387Z,4.80
2017-08-14T23:54:13.030Z,5.03
2017-08-14T23:56:40.611Z,5.20
2017-08-14T23:59:08.230Z,5.60
